Погода METAR - Абакан

Кемерово, Абакан, Красноярск, Новосибирск
Код METAR: UNAA 270230Z 25001MPS CAVOK 06/04 Q1029 R02/CLRD65 NOSIG RMK QFE749

Погода - Сейчас

Время: 2020-09-27 09:30, местное
Направление ветра: Запад-юго-запад (250°)
Скорость ветра: 1 м/с
Видимость: более 10км, отсутствие осадков и облаков
Температура: 6°C
Точка росы: 4°C
Атмосферное давление: 1029 гПа

Архив погоды

Время, местное Направление Скорость, м/с Температура, °C Точка росы, °C Давление, гПа
2020-09-27 09:30 ЗЮЗ (250°) 1 6 4 1029
2020-09-25 20:00 ЮЮЗ (200°) 2 8 2 1013
2020-09-24 17:30 ССВ (20°) 3 12 7 1002
2020-09-24 11:00 Штиль 0 8 5 1006
2020-09-23 00:30 С (350°) 2 12 8 1016
2020-09-22 19:00 ЗЮЗ (260°) 4 18 7 1014
2020-09-22 12:30 Ю (170°) 2 17 10 1013
2020-09-20 22:00 С (10°) 2 10 8 1021
2020-09-20 06:30 ЮЮВ (160°) 2 9 7 1025
2020-09-18 09:00 С (360°) 1 14 10 1012
2020-09-17 21:30 Штиль 0 13 10 1006
2020-09-17 13:30 Переменный 1 21 8 1010
2020-09-16 12:30 ЮВ (120°) 2 16 8 1011
2020-09-16 09:00 Штиль 0 9 6 1012
2020-09-16 05:30 ЮЮВ (150°) 1 2 2 1011
2020-09-16 05:00 Штиль 0 4 3 1012
2020-09-16 03:00 ЮЮВ (160°) 2 4 3 1012
2020-09-16 00:00 ЮЗ (210°) 2 6 5 1012
2020-09-15 23:00 З (270°) 1 6 5 1013
2020-09-15 22:30 З (270°) 1 7 5 1013
2020-09-15 21:30 ССЗ (340°) 1 8 5 1013
2020-09-15 21:00 ССЗ (340°) 1 9 5 1013
2020-09-15 09:00 Штиль 0 8 5 1018
2020-09-15 08:30 Штиль 0 6 4 1018
2020-09-15 06:00 Ю (190°) 2 1 1 1018
2020-09-15 03:30 Штиль 0 2 1 1019
2020-09-15 03:00 ЮВ (130°) 1 4 3 1019
2020-09-15 00:30 ЮЗ (220°) 1 4 4 1020
2020-09-14 20:30 СВ (30°) 2 9 6 1021
2020-09-14 17:00 СВ (50°) 2 18 6 1021
2020-09-14 11:30 Переменный 1 14 6 1024
2020-09-14 07:00 Штиль 0 2 1 1024
2020-09-14 06:00 ЮЗ (210°) 1 2 2 1024
2020-09-14 05:30 ЮЗ (220°) 1 2 1 1024
2020-09-14 04:30 Штиль 0 2 2 1024
2020-09-14 01:00 Штиль 0 4 4 1024
2020-09-14 00:30 Штиль 0 5 4 1024
2020-09-13 23:00 З (270°) 1 7 5 1024
2020-09-13 21:30 С (10°) 1 7 5 1025
2020-09-13 01:30 ЮЮВ (150°) 1 5 4 1027
2020-09-12 17:00 ССЗ (340°) 1 16 3 1027
2020-09-11 23:00 З (270°) 1 5 3 1028
2020-09-10 18:30 Штиль 0 12 6 1020
2020-09-10 16:00 СЗ (300°) 5 14 6 1019
2020-09-10 05:30 ЮЮЗ (200°) 1 4 4 1020
2020-09-10 02:00 З (280°) 1 4 3 1020
2020-09-10 01:30 ЗЮЗ (240°) 2 5 4 1019
2020-09-09 03:00 ЮЗ (210°) 2 9 6 1018